N92789 KLGA-KBOS
Flight info
| Callsign | N92789 |
|---|---|
| Flight time | 0h 40m |
| Altitude | 21000 |
| Route | DCT MERIT ROBUC3 |
| Aircraft | C750/M-SBDE3FGHRWXY/S |
Departure
| Time | 2026-05-07 00:04 |
|---|---|
| Airport | LaGuardia Airport (KLGA) |
Arrival
| Time | 2026-05-07 00:45 |
|---|---|
| Airport | Boston Logan International Airport (KBOS) |
| Time | Latitude | Longitude | Altitude | Speed | Heading |
|---|---|---|---|---|---|
| 2026-05-06 23:54 | 40.77394 | -73.86871 | 12 ft | 0 kts | 246° |
| 2026-05-06 23:58 | 40.77396 | -73.86864 | 12 ft | 3 kts | 311° |
| 2026-05-06 23:58 | 40.77397 | -73.86857 | 2 ft | 1 kts | 49° |
| 2026-05-06 23:59 | 40.77420 | -73.86792 | 9 ft | 10 kts | 77° |
| 2026-05-06 23:59 | 40.77408 | -73.86705 | 8 ft | 9 kts | 118° |
| 2026-05-06 23:59 | 40.77373 | -73.86633 | 9 ft | 11 kts | 123° |
| 2026-05-06 23:59 | 40.77371 | -73.86551 | 8 ft | 11 kts | 45° |
| 2026-05-07 00:00 | 40.77430 | -73.86571 | 7 ft | 11 kts | 302° |
| 2026-05-07 00:00 | 40.77479 | -73.86674 | 6 ft | 14 kts | 303° |
| 2026-05-07 00:00 | 40.77532 | -73.86773 | 8 ft | 12 kts | 314° |
| 2026-05-07 00:00 | 40.77582 | -73.86870 | 9 ft | 13 kts | 303° |
| 2026-05-07 00:01 | 40.77629 | -73.86967 | 9 ft | 12 kts | 302° |
| 2026-05-07 00:01 | 40.77667 | -73.86997 | 10 ft | 8 kts | 27° |
| 2026-05-07 00:01 | 40.77722 | -73.87028 | 12 ft | 12 kts | 301° |
| 2026-05-07 00:01 | 40.77771 | -73.87129 | 13 ft | 15 kts | 302° |
| 2026-05-07 00:02 | 40.77825 | -73.87241 | 13 ft | 15 kts | 302° |
| 2026-05-07 00:02 | 40.77876 | -73.87349 | 15 ft | 13 kts | 302° |
| 2026-05-07 00:02 | 40.77926 | -73.87453 | 13 ft | 17 kts | 302° |
| 2026-05-07 00:02 | 40.78009 | -73.87627 | 12 ft | 24 kts | 302° |
| 2026-05-07 00:03 | 40.78093 | -73.87801 | 12 ft | 22 kts | 302° |
| 2026-05-07 00:03 | 40.78176 | -73.87865 | 16 ft | 13 kts | 4° |
| 2026-05-07 00:03 | 40.78203 | -73.87790 | 14 ft | 14 kts | 122° |
| 2026-05-07 00:03 | 40.78022 | -73.87415 | 10 ft | 103 kts | 122° |
| 2026-05-07 00:04 | 40.77509 | -73.86334 | 70 ft | 164 kts | 125° |
| 2026-05-07 00:04 | 40.76831 | -73.84940 | 486 ft | 195 kts | 125° |
| 2026-05-07 00:04 | 40.76096 | -73.83302 | 1081 ft | 220 kts | 123° |
| 2026-05-07 00:04 | 40.75783 | -73.81195 | 1670 ft | 252 kts | 83° |
| 2026-05-07 00:05 | 40.76576 | -73.79193 | 2588 ft | 246 kts | 43° |
| 2026-05-07 00:05 | 40.77913 | -73.77767 | 3204 ft | 254 kts | 31° |
| 2026-05-07 00:05 | 40.79349 | -73.76417 | 4335 ft | 248 kts | 31° |
| 2026-05-07 00:05 | 40.80809 | -73.75157 | 5232 ft | 258 kts | 23° |
| 2026-05-07 00:06 | 40.82487 | -73.74040 | 5753 ft | 283 kts | 21° |
| 2026-05-07 00:06 | 40.84297 | -73.72856 | 6563 ft | 293 kts | 21° |
| 2026-05-07 00:06 | 40.86125 | -73.71613 | 7547 ft | 299 kts | 21° |
| 2026-05-07 00:06 | 40.87901 | -73.70069 | 8469 ft | 313 kts | 33° |
| 2026-05-07 00:07 | 40.89579 | -73.68180 | 9490 ft | 321 kts | 36° |
| 2026-05-07 00:07 | 40.91284 | -73.66210 | 10268 ft | 331 kts | 36° |
| 2026-05-07 00:07 | 40.93116 | -73.64190 | 10555 ft | 356 kts | 34° |
| 2026-05-07 00:07 | 40.95108 | -73.62030 | 10701 ft | 384 kts | 34° |
| 2026-05-07 00:08 | 40.97175 | -73.59727 | 11156 ft | 397 kts | 36° |
| 2026-05-07 00:08 | 40.99278 | -73.57349 | 11915 ft | 401 kts | 36° |
| 2026-05-07 00:08 | 41.01432 | -73.54956 | 12591 ft | 407 kts | 35° |
| 2026-05-07 00:08 | 41.03625 | -73.52539 | 13290 ft | 413 kts | 35° |
| 2026-05-07 00:09 | 41.05839 | -73.50073 | 13939 ft | 418 kts | 36° |
| 2026-05-07 00:09 | 41.08069 | -73.47569 | 14614 ft | 420 kts | 36° |
| 2026-05-07 00:09 | 41.10315 | -73.45060 | 15260 ft | 424 kts | 36° |
| 2026-05-07 00:09 | 41.12578 | -73.42538 | 15947 ft | 426 kts | 36° |
| 2026-05-07 00:10 | 41.14865 | -73.39984 | 16638 ft | 430 kts | 36° |
| 2026-05-07 00:10 | 41.17158 | -73.37414 | 17353 ft | 433 kts | 36° |
| 2026-05-07 00:10 | 41.19467 | -73.34823 | 18128 ft | 436 kts | 36° |
| 2026-05-07 00:10 | 41.21802 | -73.32206 | 18720 ft | 441 kts | 35° |
| 2026-05-07 00:11 | 41.22566 | -73.31350 | 18915 ft | 443 kts | 35° |
| 2026-05-07 00:11 | 41.26529 | -73.26900 | 19888 ft | 453 kts | 34° |
| 2026-05-07 00:11 | 41.28946 | -73.24179 | 20513 ft | 458 kts | 34° |
| 2026-05-07 00:11 | 41.31425 | -73.21501 | 21006 ft | 464 kts | 31° |
| 2026-05-07 00:12 | 41.33899 | -73.18555 | 20972 ft | 493 kts | 43° |
| 2026-05-07 00:12 | 41.36038 | -73.14849 | 20989 ft | 516 kts | 52° |
| 2026-05-07 00:12 | 41.37768 | -73.10570 | 21011 ft | 530 kts | 64° |
| 2026-05-07 00:12 | 41.38960 | -73.05869 | 21004 ft | 538 kts | 75° |
| 2026-05-07 00:13 | 41.39599 | -73.00945 | 21017 ft | 542 kts | 82° |
| 2026-05-07 00:13 | 41.40086 | -72.95961 | 21012 ft | 543 kts | 85° |
| 2026-05-07 00:13 | 41.40674 | -72.91017 | 20988 ft | 543 kts | 75° |
| 2026-05-07 00:13 | 41.41761 | -72.86261 | 21008 ft | 543 kts | 70° |
| 2026-05-07 00:14 | 41.43020 | -72.81444 | 21021 ft | 543 kts | 69° |
| 2026-05-07 00:14 | 41.44149 | -72.76702 | 21017 ft | 544 kts | 73° |
| 2026-05-07 00:14 | 41.45068 | -72.71808 | 21018 ft | 544 kts | 77° |
| 2026-05-07 00:14 | 41.45936 | -72.66895 | 21011 ft | 545 kts | 75° |
| 2026-05-07 00:15 | 41.46971 | -72.62031 | 21010 ft | 545 kts | 72° |
| 2026-05-07 00:15 | 41.48089 | -72.57196 | 21013 ft | 546 kts | 72° |
| 2026-05-07 00:15 | 41.49093 | -72.52323 | 20995 ft | 545 kts | 75° |
| 2026-05-07 00:15 | 41.49739 | -72.47349 | 20997 ft | 543 kts | 83° |
| 2026-05-07 00:16 | 41.50506 | -72.42409 | 20984 ft | 545 kts | 75° |
| 2026-05-07 00:16 | 41.51648 | -72.37606 | 20993 ft | 545 kts | 70° |
| 2026-05-07 00:16 | 41.52941 | -72.32836 | 21000 ft | 545 kts | 69° |
| 2026-05-07 00:16 | 41.54132 | -72.28028 | 20995 ft | 546 kts | 73° |
| 2026-05-07 00:17 | 41.55066 | -72.23122 | 21001 ft | 544 kts | 77° |
| 2026-05-07 00:17 | 41.55884 | -72.18189 | 20998 ft | 545 kts | 77° |
| 2026-05-07 00:17 | 41.56837 | -72.13287 | 20992 ft | 545 kts | 73° |
| 2026-05-07 00:17 | 41.57947 | -72.08443 | 20994 ft | 545 kts | 72° |
| 2026-05-07 00:18 | 41.58986 | -72.03572 | 20999 ft | 546 kts | 75° |
| 2026-05-07 00:18 | 41.59892 | -71.98656 | 21005 ft | 542 kts | 76° |
| 2026-05-07 00:18 | 41.60818 | -71.93760 | 21011 ft | 543 kts | 75° |
| 2026-05-07 00:18 | 41.61843 | -71.88908 | 20998 ft | 541 kts | 73° |
| 2026-05-07 00:19 | 41.62864 | -71.84064 | 21003 ft | 542 kts | 75° |
| 2026-05-07 00:19 | 41.63807 | -71.79193 | 21011 ft | 542 kts | 76° |
| 2026-05-07 00:19 | 41.64709 | -71.74450 | 21005 ft | 507 kts | 75° |
| 2026-05-07 00:19 | 41.65584 | -71.70104 | 20710 ft | 476 kts | 75° |
| 2026-05-07 00:20 | 41.66441 | -71.65933 | 20114 ft | 455 kts | 75° |
| 2026-05-07 00:20 | 41.67244 | -71.61867 | 19518 ft | 437 kts | 76° |
| 2026-05-07 00:20 | 41.68026 | -71.58059 | 18942 ft | 422 kts | 72° |
| 2026-05-07 00:20 | 41.69076 | -71.54465 | 18437 ft | 409 kts | 69° |
| 2026-05-07 00:21 | 41.70118 | -71.50957 | 17924 ft | 402 kts | 70° |
| 2026-05-07 00:21 | 41.71123 | -71.47486 | 17436 ft | 397 kts | 70° |
| 2026-05-07 00:21 | 41.72116 | -71.44052 | 16928 ft | 394 kts | 70° |
| 2026-05-07 00:21 | 41.72898 | -71.41870 | 16578 ft | 392 kts | 61° |
| 2026-05-07 00:22 | 41.74263 | -71.38723 | 16115 ft | 390 kts | 59° |
| 2026-05-07 00:22 | 41.75633 | -71.35610 | 15638 ft | 387 kts | 59° |
| 2026-05-07 00:22 | 41.76958 | -71.32495 | 15158 ft | 383 kts | 60° |
| 2026-05-07 00:22 | 41.78262 | -71.29390 | 14680 ft | 380 kts | 60° |
| 2026-05-07 00:23 | 41.79568 | -71.26327 | 14221 ft | 377 kts | 59° |
| 2026-05-07 00:23 | 41.80873 | -71.23289 | 13741 ft | 375 kts | 59° |
| 2026-05-07 00:23 | 41.82158 | -71.20273 | 13246 ft | 371 kts | 60° |
| 2026-05-07 00:23 | 41.83427 | -71.17276 | 12803 ft | 367 kts | 60° |
| 2026-05-07 00:24 | 41.84689 | -71.14300 | 12350 ft | 365 kts | 59° |
| 2026-05-07 00:24 | 41.85922 | -71.11400 | 12038 ft | 349 kts | 59° |
| 2026-05-07 00:24 | 41.87127 | -71.08612 | 12037 ft | 348 kts | 59° |
| 2026-05-07 00:24 | 41.88350 | -71.05809 | 12039 ft | 348 kts | 59° |
| 2026-05-07 00:25 | 41.89552 | -71.03030 | 12047 ft | 349 kts | 59° |
| 2026-05-07 00:25 | 41.90768 | -71.00201 | 12049 ft | 350 kts | 59° |
| 2026-05-07 00:25 | 41.91987 | -70.97371 | 12051 ft | 350 kts | 59° |
| 2026-05-07 00:25 | 41.93207 | -70.94541 | 11969 ft | 351 kts | 59° |
| 2026-05-07 00:26 | 41.94429 | -70.91704 | 11719 ft | 350 kts | 59° |
| 2026-05-07 00:26 | 41.95643 | -70.88879 | 11430 ft | 348 kts | 59° |
| 2026-05-07 00:26 | 41.96849 | -70.86066 | 11110 ft | 348 kts | 59° |
| 2026-05-07 00:26 | 41.98059 | -70.83250 | 10818 ft | 347 kts | 59° |
| 2026-05-07 00:27 | 41.99260 | -70.80447 | 10515 ft | 344 kts | 59° |
| 2026-05-07 00:27 | 42.00447 | -70.77673 | 10224 ft | 338 kts | 59° |
| 2026-05-07 00:27 | 42.01786 | -70.75117 | 9869 ft | 333 kts | 46° |
| 2026-05-07 00:27 | 42.03339 | -70.72823 | 9566 ft | 331 kts | 44° |
| 2026-05-07 00:28 | 42.04881 | -70.70585 | 9243 ft | 330 kts | 44° |
| 2026-05-07 00:28 | 42.06406 | -70.68292 | 8936 ft | 327 kts | 45° |
| 2026-05-07 00:28 | 42.07905 | -70.66012 | 8627 ft | 324 kts | 45° |
| 2026-05-07 00:28 | 42.09408 | -70.63758 | 8321 ft | 322 kts | 45° |
| 2026-05-07 00:29 | 42.11091 | -70.61848 | 7940 ft | 313 kts | 23° |
| 2026-05-07 00:29 | 42.13095 | -70.60959 | 7682 ft | 298 kts | 6° |
| 2026-05-07 00:30 | 42.19184 | -70.59297 | 6893 ft | 295 kts | 6° |
| 2026-05-07 00:30 | 42.21185 | -70.58729 | 6607 ft | 293 kts | 5° |
| 2026-05-07 00:31 | 42.27316 | -70.57020 | 5724 ft | 288 kts | 6° |
| 2026-05-07 00:31 | 42.29280 | -70.56470 | 5449 ft | 288 kts | 6° |
| 2026-05-07 00:31 | 42.31237 | -70.56091 | 5123 ft | 279 kts | 353° |
| 2026-05-07 00:31 | 42.33023 | -70.56679 | 5002 ft | 260 kts | 330° |
| 2026-05-07 00:32 | 42.34490 | -70.58036 | 5007 ft | 253 kts | 311° |
| 2026-05-07 00:32 | 42.35754 | -70.59713 | 5037 ft | 255 kts | 310° |
| 2026-05-07 00:32 | 42.37042 | -70.61395 | 5018 ft | 258 kts | 310° |
| 2026-05-07 00:32 | 42.38336 | -70.63082 | 5018 ft | 258 kts | 310° |
| 2026-05-07 00:33 | 42.39622 | -70.64773 | 5019 ft | 257 kts | 310° |
| 2026-05-07 00:33 | 42.40910 | -70.66469 | 5014 ft | 258 kts | 310° |
| 2026-05-07 00:33 | 42.42191 | -70.68155 | 5011 ft | 257 kts | 310° |
| 2026-05-07 00:33 | 42.43476 | -70.69848 | 5007 ft | 260 kts | 310° |
| 2026-05-07 00:34 | 42.44764 | -70.71542 | 4997 ft | 255 kts | 310° |
| 2026-05-07 00:34 | 42.46050 | -70.73229 | 5011 ft | 253 kts | 310° |
| 2026-05-07 00:34 | 42.47317 | -70.74917 | 4993 ft | 257 kts | 310° |
| 2026-05-07 00:34 | 42.48592 | -70.76619 | 4968 ft | 262 kts | 311° |
| 2026-05-07 00:35 | 42.49869 | -70.78268 | 5002 ft | 249 kts | 310° |
| 2026-05-07 00:35 | 42.51058 | -70.79815 | 4986 ft | 228 kts | 310° |
| 2026-05-07 00:35 | 42.52421 | -70.80951 | 4959 ft | 237 kts | 334° |
| 2026-05-07 00:35 | 42.54073 | -70.81225 | 4876 ft | 248 kts | 359° |
| 2026-05-07 00:36 | 42.55757 | -70.80606 | 4811 ft | 249 kts | 13° |
| 2026-05-07 00:36 | 42.57382 | -70.79787 | 4485 ft | 245 kts | 15° |
| 2026-05-07 00:36 | 42.58965 | -70.78983 | 4165 ft | 246 kts | 14° |
| 2026-05-07 00:36 | 42.60573 | -70.78198 | 3993 ft | 239 kts | 14° |
| 2026-05-07 00:37 | 42.62138 | -70.77429 | 4000 ft | 240 kts | 14° |
| 2026-05-07 00:37 | 42.63718 | -70.76872 | 3928 ft | 233 kts | 354° |
| 2026-05-07 00:37 | 42.65135 | -70.77600 | 3886 ft | 209 kts | 310° |
| 2026-05-07 00:37 | 42.65676 | -70.79316 | 3913 ft | 205 kts | 268° |
| 2026-05-07 00:38 | 42.65202 | -70.81096 | 4025 ft | 206 kts | 240° |
| 2026-05-07 00:38 | 42.64407 | -70.82734 | 4030 ft | 207 kts | 238° |
| 2026-05-07 00:38 | 42.63594 | -70.84354 | 4008 ft | 207 kts | 237° |
| 2026-05-07 00:38 | 42.62787 | -70.85967 | 4018 ft | 205 kts | 238° |
| 2026-05-07 00:39 | 42.61902 | -70.87492 | 3991 ft | 210 kts | 228° |
| 2026-05-07 00:39 | 42.60702 | -70.88646 | 3989 ft | 218 kts | 213° |
| 2026-05-07 00:39 | 42.59304 | -70.89432 | 3990 ft | 217 kts | 205° |
| 2026-05-07 00:39 | 42.57885 | -70.90115 | 3997 ft | 217 kts | 205° |
| 2026-05-07 00:40 | 42.56402 | -70.90842 | 3939 ft | 228 kts | 205° |
| 2026-05-07 00:40 | 42.54936 | -70.91552 | 3655 ft | 220 kts | 205° |
| 2026-05-07 00:40 | 42.53526 | -70.92237 | 3364 ft | 210 kts | 205° |
| 2026-05-07 00:40 | 42.52182 | -70.92886 | 3118 ft | 201 kts | 206° |
| 2026-05-07 00:41 | 42.50924 | -70.93489 | 2820 ft | 182 kts | 206° |
| 2026-05-07 00:41 | 42.49718 | -70.94094 | 2582 ft | 185 kts | 206° |
| 2026-05-07 00:41 | 42.48515 | -70.94678 | 2348 ft | 188 kts | 206° |
| 2026-05-07 00:41 | 42.47292 | -70.95268 | 2106 ft | 185 kts | 205° |
| 2026-05-07 00:42 | 42.46085 | -70.95857 | 1854 ft | 183 kts | 204° |
| 2026-05-07 00:42 | 42.44904 | -70.96438 | 1621 ft | 177 kts | 204° |
| 2026-05-07 00:42 | 42.43840 | -70.96946 | 1389 ft | 149 kts | 203° |
| 2026-05-07 00:42 | 42.42949 | -70.97372 | 1195 ft | 124 kts | 204° |
| 2026-05-07 00:43 | 42.42174 | -70.97753 | 1016 ft | 116 kts | 204° |
| 2026-05-07 00:43 | 42.41415 | -70.98119 | 870 ft | 117 kts | 202° |
| 2026-05-07 00:43 | 42.40643 | -70.98493 | 725 ft | 117 kts | 202° |
| 2026-05-07 00:43 | 42.39879 | -70.98872 | 577 ft | 116 kts | 201° |
| 2026-05-07 00:44 | 42.39104 | -70.99244 | 408 ft | 118 kts | 199° |
| 2026-05-07 00:44 | 42.38330 | -70.99608 | 265 ft | 118 kts | 202° |
| 2026-05-07 00:44 | 42.37548 | -70.99992 | 86 ft | 120 kts | 201° |
| 2026-05-07 00:44 | 42.36827 | -71.00343 | 24 ft | 96 kts | 201° |
| 2026-05-07 00:45 | 42.36420 | -71.00546 | 28 ft | 19 kts | 200° |
| 2026-05-07 00:45 | 42.36397 | -71.00635 | 27 ft | 13 kts | 289° |
| 2026-05-07 00:45 | 42.36428 | -71.00747 | 25 ft | 12 kts | 292° |
| 2026-05-07 00:45 | 42.36441 | -71.00790 | 26 ft | 0 kts | 292° |
| 2026-05-07 00:46 | 42.36451 | -71.00824 | 26 ft | 7 kts | 292° |
| 2026-05-07 00:46 | 42.36467 | -71.00875 | 27 ft | 0 kts | 291° |
| 2026-05-07 00:47 | 42.36474 | -71.00900 | 27 ft | 6 kts | 291° |
| 2026-05-07 00:47 | 42.36490 | -71.00953 | 28 ft | 10 kts | 292° |
| 2026-05-07 00:47 | 42.36534 | -71.01099 | 26 ft | 18 kts | 292° |
| 2026-05-07 00:48 | 42.36581 | -71.01251 | 22 ft | 14 kts | 292° |
| 2026-05-07 00:48 | 42.36616 | -71.01277 | 22 ft | 6 kts | 19° |
| 2026-05-07 00:48 | 42.36683 | -71.01252 | 23 ft | 11 kts | 13° |
| 2026-05-07 00:48 | 42.36758 | -71.01241 | 22 ft | 13 kts | 343° |
| 2026-05-07 00:49 | 42.36836 | -71.01282 | 21 ft | 12 kts | 31° |
| 2026-05-07 00:49 | 42.36908 | -71.01300 | 22 ft | 16 kts | 315° |
| 2026-05-07 00:49 | 42.36983 | -71.01401 | 24 ft | 14 kts | 315° |
| 2026-05-07 00:49 | 42.37049 | -71.01489 | 23 ft | 12 kts | 315° |
| 2026-05-07 00:50 | 42.37106 | -71.01565 | 26 ft | 12 kts | 315° |
| 2026-05-07 00:50 | 42.37169 | -71.01650 | 29 ft | 15 kts | 315° |
| 2026-05-07 00:50 | 42.37245 | -71.01754 | 25 ft | 16 kts | 315° |
| 2026-05-07 00:50 | 42.37320 | -71.01855 | 25 ft | 14 kts | 315° |
| 2026-05-07 00:51 | 42.37393 | -71.01951 | 23 ft | 15 kts | 315° |
| 2026-05-07 00:51 | 42.37453 | -71.02048 | 23 ft | 12 kts | 271° |
| 2026-05-07 00:51 | 42.37408 | -71.02093 | 25 ft | 6 kts | 132° |